Main page
METAR-TAF:

METAR-TAF

Airports :

Anatom Airport

Aneityum, Vanuatu

latitude: 20-14-57S, longitude: 169-46-17E, elevation: 2 m

Current weather observation

The report was made 1 hour and 49 minutes ago, at 15:00 UTC
Wind 1 kt from the North/Northeast
Temperature 22°C
Humidity 100%
Pressure 1017 hPa

METAR: NVVA 281500Z AUTO 02001KT //// // 22/22 Q1017

Time: 03:49 (16:49 UTC)

Forecast

The report was made 6 hours and 49 minutes ago, at 10:00 UTC
Forecast valid from 28 at 12 UTC to 29 at 12 UTC
Wind 5 kt from the East
Visibility 10 km or more
Scattered clouds at a height of 2000 ft
Probability 30%
between IN and TE UTC
Visibility: 9000 m
Broken clouds at a height of 1800 ft
light rain showers

TAF: NVVA 281000Z 2812/2912 10005KT 9999 SCT020 PROB30 INTER 2812/2818 9000 -SHRA BKN018

Weather observations and forecasts of more than 4000 airports (METAR and TAF reports).

The available stations are represented by yellow and red dots on the map.

Hover mouse over dot to see the name of the station.

Then click to see weather observations and forecasts.

To change the map : click on the green buttons with a black cross to zoom in, on the green button with a dash to zoom out, or on the green arrows for adjacent maps.


METAR-TAF: